sensor_id;sensor_type;location;lat;lon;timestamp;temperature;humidity
68493;HTU21D;55483;51.106;5.984;2023-05-18T00:01:00;9.83;82.04
68493;HTU21D;55483;51.106;5.984;2023-05-18T00:03:28;9.78;82.39
68493;HTU21D;55483;51.106;5.984;2023-05-18T00:05:54;9.72;82.54
68493;HTU21D;55483;51.106;5.984;2023-05-18T00:08:35;9.65;82.50
68493;HTU21D;55483;51.106;5.984;2023-05-18T00:11:01;9.53;82.53
68493;HTU21D;55483;51.106;5.984;2023-05-18T00:13:28;9.42;82.85
68493;HTU21D;55483;51.106;5.984;2023-05-18T00:15:54;9.34;83.17
68493;HTU21D;55483;51.106;5.984;2023-05-18T00:18:20;9.29;83.49
68493;HTU21D;55483;51.106;5.984;2023-05-18T00:20:49;9.21;83.73
68493;HTU21D;55483;51.106;5.984;2023-05-18T00:23:15;9.16;84.19
68493;HTU21D;55483;51.106;5.984;2023-05-18T00:25:41;9.11;84.83
68493;HTU21D;55483;51.106;5.984;2023-05-18T00:28:07;9.09;85.51
68493;HTU21D;55483;51.106;5.984;2023-05-18T00:30:33;9.11;86.06
68493;HTU21D;55483;51.106;5.984;2023-05-18T00:32:59;9.14;86.46
68493;HTU21D;55483;51.106;5.984;2023-05-18T00:35:24;9.17;86.58
68493;HTU21D;55483;51.106;5.984;2023-05-18T00:37:50;9.18;86.57
68493;HTU21D;55483;51.106;5.984;2023-05-18T00:40:16;9.19;86.61
68493;HTU21D;55483;51.106;5.984;2023-05-18T00:42:41;9.17;86.49
68493;HTU21D;55483;51.106;5.984;2023-05-18T00:45:08;9.09;86.24
68493;HTU21D;55483;51.106;5.984;2023-05-18T00:47:33;9.01;86.70
68493;HTU21D;55483;51.106;5.984;2023-05-18T00:50:00;8.93;87.23
68493;HTU21D;55483;51.106;5.984;2023-05-18T00:52:26;8.88;87.86
68493;HTU21D;55483;51.106;5.984;2023-05-18T00:54:53;8.86;88.12
68493;HTU21D;55483;51.106;5.984;2023-05-18T00:57:18;8.85;88.51
68493;HTU21D;55483;51.106;5.984;2023-05-18T00:59:45;8.85;88.80
68493;HTU21D;55483;51.106;5.984;2023-05-18T01:02:11;8.83;89.30
68493;HTU21D;55483;51.106;5.984;2023-05-18T01:04:39;8.83;89.56
68493;HTU21D;55483;51.106;5.984;2023-05-18T01:07:06;8.80;89.84
68493;HTU21D;55483;51.106;5.984;2023-05-18T01:09:33;8.75;89.88
68493;HTU21D;55483;51.106;5.984;2023-05-18T01:12:06;8.70;89.67
68493;HTU21D;55483;51.106;5.984;2023-05-18T01:14:44;8.59;90.21
68493;HTU21D;55483;51.106;5.984;2023-05-18T01:17:28;8.53;90.53
68493;HTU21D;55483;51.106;5.984;2023-05-18T01:22:32;8.34;91.43
68493;HTU21D;55483;51.106;5.984;2023-05-18T01:28:12;8.18;92.86
68493;HTU21D;55483;51.106;5.984;2023-05-18T01:30:41;8.08;93.27
68493;HTU21D;55483;51.106;5.984;2023-05-18T01:33:09;8.05;93.95
68493;HTU21D;55483;51.106;5.984;2023-05-18T01:35:36;8.00;94.56
68493;HTU21D;55483;51.106;5.984;2023-05-18T01:38:03;7.98;95.10
68493;HTU21D;55483;51.106;5.984;2023-05-18T01:40:51;7.99;95.49
68493;HTU21D;55483;51.106;5.984;2023-05-18T01:43:22;8.00;95.62
68493;HTU21D;55483;51.106;5.984;2023-05-18T01:45:55;8.04;96.08
68493;HTU21D;55483;51.106;5.984;2023-05-18T01:48:24;8.08;96.05
68493;HTU21D;55483;51.106;5.984;2023-05-18T01:50:54;8.13;95.74
68493;HTU21D;55483;51.106;5.984;2023-05-18T01:53:36;8.15;95.26
68493;HTU21D;55483;51.106;5.984;2023-05-18T01:56:06;8.15;94.87
68493;HTU21D;55483;51.106;5.984;2023-05-18T01:58:35;8.14;94.69
68493;HTU21D;55483;51.106;5.984;2023-05-18T02:01:01;8.14;94.11
68493;HTU21D;55483;51.106;5.984;2023-05-18T02:03:27;8.14;93.88
68493;HTU21D;55483;51.106;5.984;2023-05-18T02:05:55;8.11;94.26
68493;HTU21D;55483;51.106;5.984;2023-05-18T02:08:21;8.08;94.56
68493;HTU21D;55483;51.106;5.984;2023-05-18T02:10:46;8.05;95.13
68493;HTU21D;55483;51.106;5.984;2023-05-18T02:13:12;8.00;95.58
68493;HTU21D;55483;51.106;5.984;2023-05-18T02:15:37;7.98;96.23
68493;HTU21D;55483;51.106;5.984;2023-05-18T02:18:03;7.97;96.39
68493;HTU21D;55483;51.106;5.984;2023-05-18T02:20:30;7.94;96.74
68493;HTU21D;55483;51.106;5.984;2023-05-18T02:22:58;7.94;97.04
68493;HTU21D;55483;51.106;5.984;2023-05-18T02:25:24;7.91;97.22
68493;HTU21D;55483;51.106;5.984;2023-05-18T02:27:51;7.91;97.38
68493;HTU21D;55483;51.106;5.984;2023-05-18T02:30:17;7.88;97.53
68493;HTU21D;55483;51.106;5.984;2023-05-18T02:32:43;7.85;97.78
68493;HTU21D;55483;51.106;5.984;2023-05-18T02:35:11;7.81;98.08
68493;HTU21D;55483;51.106;5.984;2023-05-18T02:37:37;7.75;98.50
68493;HTU21D;55483;51.106;5.984;2023-05-18T02:40:12;7.75;98.56
68493;HTU21D;55483;51.106;5.984;2023-05-18T02:42:39;7.72;98.51
68493;HTU21D;55483;51.106;5.984;2023-05-18T02:45:05;7.69;98.73
68493;HTU21D;55483;51.106;5.984;2023-05-18T02:47:32;7.67;99.05
68493;HTU21D;55483;51.106;5.984;2023-05-18T02:49:57;7.65;98.80
68493;HTU21D;55483;51.106;5.984;2023-05-18T02:52:23;7.64;98.73
68493;HTU21D;55483;51.106;5.984;2023-05-18T02:54:49;7.63;99.16
68493;HTU21D;55483;51.106;5.984;2023-05-18T02:57:22;7.60;99.90
68493;HTU21D;55483;51.106;5.984;2023-05-18T02:59:59;7.56;100.32
68493;HTU21D;55483;51.106;5.984;2023-05-18T03:02:25;7.54;100.74
68493;HTU21D;55483;51.106;5.984;2023-05-18T03:04:52;7.44;100.80
68493;HTU21D;55483;51.106;5.984;2023-05-18T03:07:22;7.42;101.99
68493;HTU21D;55483;51.106;5.984;2023-05-18T03:09:48;7.42;102.07
68493;HTU21D;55483;51.106;5.984;2023-05-18T03:12:13;7.41;102.75
68493;HTU21D;55483;51.106;5.984;2023-05-18T03:14:39;7.42;102.31
68493;HTU21D;55483;51.106;5.984;2023-05-18T03:17:05;7.37;102.64
68493;HTU21D;55483;51.106;5.984;2023-05-18T03:19:31;7.35;102.71
68493;HTU21D;55483;51.106;5.984;2023-05-18T03:21:59;7.31;102.90
68493;HTU21D;55483;51.106;5.984;2023-05-18T03:24:25;7.29;103.27
68493;HTU21D;55483;51.106;5.984;2023-05-18T03:26:51;7.26;103.92
68493;HTU21D;55483;51.106;5.984;2023-05-18T03:29:20;7.23;104.53
68493;HTU21D;55483;51.106;5.984;2023-05-18T03:31:46;7.18;105.39
68493;HTU21D;55483;51.106;5.984;2023-05-18T03:34:12;7.15;105.53
68493;HTU21D;55483;51.106;5.984;2023-05-18T03:36:38;7.12;106.65
68493;HTU21D;55483;51.106;5.984;2023-05-18T03:39:04;7.08;107.09
68493;HTU21D;55483;51.106;5.984;2023-05-18T03:41:31;7.02;108.15
68493;HTU21D;55483;51.106;5.984;2023-05-18T03:43:57;7.00;108.63
68493;HTU21D;55483;51.106;5.984;2023-05-18T03:46:23;6.95;109.08
68493;HTU21D;55483;51.106;5.984;2023-05-18T03:48:49;6.88;109.86
68493;HTU21D;55483;51.106;5.984;2023-05-18T03:51:19;6.84;110.70
68493;HTU21D;55483;51.106;5.984;2023-05-18T03:53:45;6.87;111.10
68493;HTU21D;55483;51.106;5.984;2023-05-18T03:56:11;6.91;110.49
68493;HTU21D;55483;51.106;5.984;2023-05-18T03:58:37;6.94;110.04
68493;HTU21D;55483;51.106;5.984;2023-05-18T04:01:03;6.96;109.45
68493;HTU21D;55483;51.106;5.984;2023-05-18T04:03:29;6.98;110.05
68493;HTU21D;55483;51.106;5.984;2023-05-18T04:05:55;7.02;109.64
68493;HTU21D;55483;51.106;5.984;2023-05-18T04:08:21;7.09;108.85
68493;HTU21D;55483;51.106;5.984;2023-05-18T04:10:50;7.12;108.18
68493;HTU21D;55483;51.106;5.984;2023-05-18T04:13:17;7.09;107.60
68493;HTU21D;55483;51.106;5.984;2023-05-18T04:15:42;7.12;108.39
68493;HTU21D;55483;51.106;5.984;2023-05-18T04:18:08;7.26;108.13
68493;HTU21D;55483;51.106;5.984;2023-05-18T04:20:35;7.58;105.81
68493;HTU21D;55483;51.106;5.984;2023-05-18T04:23:02;8.19;100.96
68493;HTU21D;55483;51.106;5.984;2023-05-18T04:25:30;8.80;95.82
68493;HTU21D;55483;51.106;5.984;2023-05-18T04:27:56;9.39;91.05
68493;HTU21D;55483;51.106;5.984;2023-05-18T04:30:26;9.78;87.71
68493;HTU21D;55483;51.106;5.984;2023-05-18T04:32:53;10.05;84.27
68493;HTU21D;55483;51.106;5.984;2023-05-18T04:35:23;10.49;82.01
68493;HTU21D;55483;51.106;5.984;2023-05-18T04:37:51;10.83;80.12
68493;HTU21D;55483;51.106;5.984;2023-05-18T04:40:19;11.05;78.31
68493;HTU21D;55483;51.106;5.984;2023-05-18T04:42:46;11.27;76.85
68493;HTU21D;55483;51.106;5.984;2023-05-18T04:45:18;11.28;76.30
68493;HTU21D;55483;51.106;5.984;2023-05-18T04:47:47;11.17;77.08
68493;HTU21D;55483;51.106;5.984;2023-05-18T04:50:18;11.11;77.66
68493;HTU21D;55483;51.106;5.984;2023-05-18T04:52:46;11.19;77.80
68493;HTU21D;55483;51.106;5.984;2023-05-18T04:55:16;11.54;76.82
68493;HTU21D;55483;51.106;5.984;2023-05-18T04:57:44;12.13;74.70
68493;HTU21D;55483;51.106;5.984;2023-05-18T05:00:11;12.87;71.03
68493;HTU21D;55483;51.106;5.984;2023-05-18T05:02:37;13.37;67.98
68493;HTU21D;55483;51.106;5.984;2023-05-18T05:05:03;13.83;65.37
68493;HTU21D;55483;51.106;5.984;2023-05-18T05:07:29;14.19;62.97
68493;HTU21D;55483;51.106;5.984;2023-05-18T05:09:54;14.63;61.20
68493;HTU21D;55483;51.106;5.984;2023-05-18T05:12:20;15.31;58.72
68493;HTU21D;55483;51.106;5.984;2023-05-18T05:14:45;16.17;56.02
68493;HTU21D;55483;51.106;5.984;2023-05-18T05:17:11;17.01;53.43
68493;HTU21D;55483;51.106;5.984;2023-05-18T05:19:37;17.77;51.27
68493;HTU21D;55483;51.106;5.984;2023-05-18T05:22:03;18.43;48.95
68493;HTU21D;55483;51.106;5.984;2023-05-18T05:24:29;18.66;48.29
68493;HTU21D;55483;51.106;5.984;2023-05-18T05:26:55;18.81;48.10
68493;HTU21D;55483;51.106;5.984;2023-05-18T05:29:20;19.08;47.40
68493;HTU21D;55483;51.106;5.984;2023-05-18T05:31:46;19.43;46.30
68493;HTU21D;55483;51.106;5.984;2023-05-18T05:34:11;19.51;45.19
68493;HTU21D;55483;51.106;5.984;2023-05-18T05:36:38;19.54;45.04
68493;HTU21D;55483;51.106;5.984;2023-05-18T05:39:04;19.76;44.97
68493;HTU21D;55483;51.106;5.984;2023-05-18T05:41:29;20.02;44.27
68493;HTU21D;55483;51.106;5.984;2023-05-18T05:43:57;19.65;43.84
68493;HTU21D;55483;51.106;5.984;2023-05-18T05:46:23;19.54;44.28
68493;HTU21D;55483;51.106;5.984;2023-05-18T05:48:49;19.62;43.87
68493;HTU21D;55483;51.106;5.984;2023-05-18T05:51:15;19.79;43.84
68493;HTU21D;55483;51.106;5.984;2023-05-18T05:53:41;20.04;41.74
68493;HTU21D;55483;51.106;5.984;2023-05-18T05:56:08;20.05;43.19
68493;HTU21D;55483;51.106;5.984;2023-05-18T05:58:36;20.36;42.37
68493;HTU21D;55483;51.106;5.984;2023-05-18T06:01:02;20.24;38.98
68493;HTU21D;55483;51.106;5.984;2023-05-18T06:03:29;20.10;42.12
68493;HTU21D;55483;51.106;5.984;2023-05-18T06:05:58;20.40;42.32
68493;HTU21D;55483;51.106;5.984;2023-05-18T06:08:24;20.78;41.23
68493;HTU21D;55483;51.106;5.984;2023-05-18T06:10:50;21.11;40.13
68493;HTU21D;55483;51.106;5.984;2023-05-18T06:13:17;21.24;40.16
68493;HTU21D;55483;51.106;5.984;2023-05-18T06:15:50;21.69;38.92
68493;HTU21D;55483;51.106;5.984;2023-05-18T06:18:17;21.79;37.24
68493;HTU21D;55483;51.106;5.984;2023-05-18T06:20:44;21.43;37.42
68493;HTU21D;55483;51.106;5.984;2023-05-18T06:23:11;21.04;40.45
68493;HTU21D;55483;51.106;5.984;2023-05-18T06:25:54;21.37;40.45
68493;HTU21D;55483;51.106;5.984;2023-05-18T06:28:46;22.09;38.65
68493;HTU21D;55483;51.106;5.984;2023-05-18T06:31:20;21.94;38.50
68493;HTU21D;55483;51.106;5.984;2023-05-18T06:33:52;21.84;38.75
68493;HTU21D;55483;51.106;5.984;2023-05-18T06:36:18;21.96;38.53
68493;HTU21D;55483;51.106;5.984;2023-05-18T06:38:43;21.83;38.53
68493;HTU21D;55483;51.106;5.984;2023-05-18T06:41:09;21.42;39.85
68493;HTU21D;55483;51.106;5.984;2023-05-18T06:43:34;21.51;38.79
68493;HTU21D;55483;51.106;5.984;2023-05-18T06:46:22;21.20;40.04
68493;HTU21D;55483;51.106;5.984;2023-05-18T06:48:54;21.48;39.70
68493;HTU21D;55483;51.106;5.984;2023-05-18T06:51:20;21.74;38.65
68493;HTU21D;55483;51.106;5.984;2023-05-18T06:53:47;21.82;39.30
68493;HTU21D;55483;51.106;5.984;2023-05-18T06:56:13;22.46;37.88
68493;HTU21D;55483;51.106;5.984;2023-05-18T06:58:41;23.22;36.37
68493;HTU21D;55483;51.106;5.984;2023-05-18T07:01:07;24.11;34.86
68493;HTU21D;55483;51.106;5.984;2023-05-18T07:03:33;24.87;33.32
68493;HTU21D;55483;51.106;5.984;2023-05-18T07:05:59;25.53;32.30
68493;HTU21D;55483;51.106;5.984;2023-05-18T07:08:24;26.01;31.28
68493;HTU21D;55483;51.106;5.984;2023-05-18T07:10:50;26.36;30.43
68493;HTU21D;55483;51.106;5.984;2023-05-18T07:13:17;26.23;30.44
68493;HTU21D;55483;51.106;5.984;2023-05-18T07:15:43;25.84;30.49
68493;HTU21D;55483;51.106;5.984;2023-05-18T07:18:09;25.45;31.41
68493;HTU21D;55483;51.106;5.984;2023-05-18T07:20:35;25.79;31.38
68493;HTU21D;55483;51.106;5.984;2023-05-18T07:23:01;26.24;30.81
68493;HTU21D;55483;51.106;5.984;2023-05-18T07:25:26;26.53;29.72
68493;HTU21D;55483;51.106;5.984;2023-05-18T07:27:53;26.38;29.88
68493;HTU21D;55483;51.106;5.984;2023-05-18T07:30:19;26.06;29.90
68493;HTU21D;55483;51.106;5.984;2023-05-18T07:32:45;25.78;30.56
68493;HTU21D;55483;51.106;5.984;2023-05-18T07:35:10;25.61;30.42
68493;HTU21D;55483;51.106;5.984;2023-05-18T07:37:36;25.60;31.19
68493;HTU21D;55483;51.106;5.984;2023-05-18T07:40:02;25.53;30.87
68493;HTU21D;55483;51.106;5.984;2023-05-18T07:42:29;25.58;30.76
68493;HTU21D;55483;51.106;5.984;2023-05-18T07:44:55;25.23;30.88
68493;HTU21D;55483;51.106;5.984;2023-05-18T07:47:20;25.02;31.09
68493;HTU21D;55483;51.106;5.984;2023-05-18T07:49:47;25.28;30.63
68493;HTU21D;55483;51.106;5.984;2023-05-18T07:52:14;25.71;29.90
68493;HTU21D;55483;51.106;5.984;2023-05-18T07:54:39;25.99;29.59
68493;HTU21D;55483;51.106;5.984;2023-05-18T07:57:05;26.72;28.84
68493;HTU21D;55483;51.106;5.984;2023-05-18T07:59:31;27.25;27.90
68493;HTU21D;55483;51.106;5.984;2023-05-18T08:01:56;27.39;27.31
68493;HTU21D;55483;51.106;5.984;2023-05-18T08:04:24;27.30;27.26
68493;HTU21D;55483;51.106;5.984;2023-05-18T08:06:50;27.46;27.27
68493;HTU21D;55483;51.106;5.984;2023-05-18T08:09:19;27.56;26.39
68493;HTU21D;55483;51.106;5.984;2023-05-18T08:11:47;26.75;27.82
68493;HTU21D;55483;51.106;5.984;2023-05-18T08:14:12;26.43;28.45
68493;HTU21D;55483;51.106;5.984;2023-05-18T08:16:38;25.45;29.87
68493;HTU21D;55483;51.106;5.984;2023-05-18T08:19:04;24.18;31.19
68493;HTU21D;55483;51.106;5.984;2023-05-18T08:21:30;23.41;34.02
68493;HTU21D;55483;51.106;5.984;2023-05-18T08:23:55;22.98;34.92
68493;HTU21D;55483;51.106;5.984;2023-05-18T08:26:21;22.94;34.15
68493;HTU21D;55483;51.106;5.984;2023-05-18T08:28:47;22.28;34.21
68493;HTU21D;55483;51.106;5.984;2023-05-18T08:31:14;21.32;31.47
68493;HTU21D;55483;51.106;5.984;2023-05-18T08:33:39;21.89;34.94
68493;HTU21D;55483;51.106;5.984;2023-05-18T08:36:07;22.48;32.32
68493;HTU21D;55483;51.106;5.984;2023-05-18T08:38:33;23.21;32.28
68493;HTU21D;55483;51.106;5.984;2023-05-18T08:41:18;24.93;26.96
68493;HTU21D;55483;51.106;5.984;2023-05-18T08:43:58;26.15;27.59
68493;HTU21D;55483;51.106;5.984;2023-05-18T08:46:33;27.12;26.61
68493;HTU21D;55483;51.106;5.984;2023-05-18T08:49:00;28.05;25.48
68493;HTU21D;55483;51.106;5.984;2023-05-18T08:51:29;28.94;24.22
68493;HTU21D;55483;51.106;5.984;2023-05-18T08:53:59;29.28;23.53
68493;HTU21D;55483;51.106;5.984;2023-05-18T08:56:25;29.44;22.27
68493;HTU21D;55483;51.106;5.984;2023-05-18T08:58:55;29.51;22.54
68493;HTU21D;55483;51.106;5.984;2023-05-18T09:01:23;29.57;22.54
68493;HTU21D;55483;51.106;5.984;2023-05-18T09:03:56;29.85;22.53
68493;HTU21D;55483;51.106;5.984;2023-05-18T09:06:23;30.06;21.48
68493;HTU21D;55483;51.106;5.984;2023-05-18T09:08:51;30.31;20.97
68493;HTU21D;55483;51.106;5.984;2023-05-18T09:11:17;30.61;20.80
68493;HTU21D;55483;51.106;5.984;2023-05-18T09:13:43;30.92;20.32
68493;HTU21D;55483;51.106;5.984;2023-05-18T09:16:09;31.07;19.86
68493;HTU21D;55483;51.106;5.984;2023-05-18T09:18:34;31.16;19.28
68493;HTU21D;55483;51.106;5.984;2023-05-18T09:21:00;29.96;19.27
68493;HTU21D;55483;51.106;5.984;2023-05-18T09:23:26;28.77;22.69
68493;HTU21D;55483;51.106;5.984;2023-05-18T09:25:52;28.91;22.31
68493;HTU21D;55483;51.106;5.984;2023-05-18T09:28:45;29.71;21.45
68493;HTU21D;55483;51.106;5.984;2023-05-18T09:31:18;29.92;21.00
68493;HTU21D;55483;51.106;5.984;2023-05-18T09:33:45;29.27;21.10
68493;HTU21D;55483;51.106;5.984;2023-05-18T09:36:12;28.86;21.98
68493;HTU21D;55483;51.106;5.984;2023-05-18T09:38:44;29.16;22.21
68493;HTU21D;55483;51.106;5.984;2023-05-18T09:41:17;28.65;22.00
68493;HTU21D;55483;51.106;5.984;2023-05-18T09:43:46;28.64;22.63
68493;HTU21D;55483;51.106;5.984;2023-05-18T09:46:12;27.36;24.17
68493;HTU21D;55483;51.106;5.984;2023-05-18T09:48:44;26.94;24.56
68493;HTU21D;55483;51.106;5.984;2023-05-18T09:51:11;26.42;25.07
68493;HTU21D;55483;51.106;5.984;2023-05-18T09:54:03;26.41;25.46
68493;HTU21D;55483;51.106;5.984;2023-05-18T09:56:34;27.25;25.18
68493;HTU21D;55483;51.106;5.984;2023-05-18T09:59:10;28.17;22.16
68493;HTU21D;55483;51.106;5.984;2023-05-18T10:01:57;26.89;25.57
68493;HTU21D;55483;51.106;5.984;2023-05-18T10:04:42;27.40;24.87
68493;HTU21D;55483;51.106;5.984;2023-05-18T10:07:16;28.25;22.63
68493;HTU21D;55483;51.106;5.984;2023-05-18T10:09:43;27.95;23.42
68493;HTU21D;55483;51.106;5.984;2023-05-18T10:12:11;27.29;24.43
68493;HTU21D;55483;51.106;5.984;2023-05-18T10:14:36;28.03;23.58
68493;HTU21D;55483;51.106;5.984;2023-05-18T10:17:03;28.89;22.73
68493;HTU21D;55483;51.106;5.984;2023-05-18T10:19:33;29.71;19.05
68493;HTU21D;55483;51.106;5.984;2023-05-18T10:22:01;29.50;20.95
68493;HTU21D;55483;51.106;5.984;2023-05-18T10:24:31;29.44;20.97
68493;HTU21D;55483;51.106;5.984;2023-05-18T10:27:00;29.72;21.09
68493;HTU21D;55483;51.106;5.984;2023-05-18T10:29:31;28.74;22.58
68493;HTU21D;55483;51.106;5.984;2023-05-18T10:32:00;27.58;23.26
68493;HTU21D;55483;51.106;5.984;2023-05-18T10:34:30;28.09;22.53
68493;HTU21D;55483;51.106;5.984;2023-05-18T10:36:58;28.82;20.90
68493;HTU21D;55483;51.106;5.984;2023-05-18T10:39:25;29.59;20.49
68493;HTU21D;55483;51.106;5.984;2023-05-18T10:41:54;28.54;19.92
68493;HTU21D;55483;51.106;5.984;2023-05-18T10:44:23;27.22;23.14
68493;HTU21D;55483;51.106;5.984;2023-05-18T10:46:49;27.71;22.57
68493;HTU21D;55483;51.106;5.984;2023-05-18T10:49:20;27.96;22.81
68493;HTU21D;55483;51.106;5.984;2023-05-18T10:51:52;28.27;22.05
68493;HTU21D;55483;51.106;5.984;2023-05-18T10:54:21;27.85;23.62
68493;HTU21D;55483;51.106;5.984;2023-05-18T10:56:53;26.34;26.52
68493;HTU21D;55483;51.106;5.984;2023-05-18T10:59:19;26.72;25.77
68493;HTU21D;55483;51.106;5.984;2023-05-18T11:01:49;27.89;24.36
68493;HTU21D;55483;51.106;5.984;2023-05-18T11:04:21;28.41;23.27
68493;HTU21D;55483;51.106;5.984;2023-05-18T11:06:53;28.82;22.69
68493;HTU21D;55483;51.106;5.984;2023-05-18T11:09:22;29.58;21.74
68493;HTU21D;55483;51.106;5.984;2023-05-18T11:11:55;30.32;20.76
68493;HTU21D;55483;51.106;5.984;2023-05-18T11:14:31;30.25;19.70
68493;HTU21D;55483;51.106;5.984;2023-05-18T11:22:42;30.44;19.76
68493;HTU21D;55483;51.106;5.984;2023-05-18T11:25:08;29.08;20.66
68493;HTU21D;55483;51.106;5.984;2023-05-18T11:27:34;28.64;21.99
68493;HTU21D;55483;51.106;5.984;2023-05-18T11:30:00;28.62;22.56
68493;HTU21D;55483;51.106;5.984;2023-05-18T11:32:27;29.05;21.91
68493;HTU21D;55483;51.106;5.984;2023-05-18T11:34:55;29.26;21.73
68493;HTU21D;55483;51.106;5.984;2023-05-18T11:40:08;27.87;23.30
68493;HTU21D;55483;51.106;5.984;2023-05-18T11:42:34;27.75;24.01
68493;HTU21D;55483;51.106;5.984;2023-05-18T11:45:08;27.30;24.28
68493;HTU21D;55483;51.106;5.984;2023-05-18T11:47:35;25.90;27.26
68493;HTU21D;55483;51.106;5.984;2023-05-18T11:50:02;24.86;27.86
68493;HTU21D;55483;51.106;5.984;2023-05-18T11:52:31;24.65;28.83
68493;HTU21D;55483;51.106;5.984;2023-05-18T11:54:58;24.65;28.54
68493;HTU21D;55483;51.106;5.984;2023-05-18T11:59:59;25.16;27.15
68493;HTU21D;55483;51.106;5.984;2023-05-18T12:02:34;25.17;26.81
68493;HTU21D;55483;51.106;5.984;2023-05-18T12:05:01;24.30;28.45
68493;HTU21D;55483;51.106;5.984;2023-05-18T12:07:31;24.15;29.07
68493;HTU21D;55483;51.106;5.984;2023-05-18T12:10:00;24.49;28.32
68493;HTU21D;55483;51.106;5.984;2023-05-18T12:12:26;24.77;27.55
68493;HTU21D;55483;51.106;5.984;2023-05-18T12:14:56;24.71;27.56
68493;HTU21D;55483;51.106;5.984;2023-05-18T12:17:22;24.60;28.42
68493;HTU21D;55483;51.106;5.984;2023-05-18T12:19:49;23.96;28.68
68493;HTU21D;55483;51.106;5.984;2023-05-18T12:22:15;22.37;32.83
68493;HTU21D;55483;51.106;5.984;2023-05-18T12:24:42;21.89;32.81
68493;HTU21D;55483;51.106;5.984;2023-05-18T12:27:09;21.11;34.77
68493;HTU21D;55483;51.106;5.984;2023-05-18T12:29:40;21.60;34.69
68493;HTU21D;55483;51.106;5.984;2023-05-18T12:32:09;22.46;33.23
68493;HTU21D;55483;51.106;5.984;2023-05-18T12:34:36;23.01;31.84
68493;HTU21D;55483;51.106;5.984;2023-05-18T12:37:02;23.43;30.89
68493;HTU21D;55483;51.106;5.984;2023-05-18T12:39:28;23.15;30.99
68493;HTU21D;55483;51.106;5.984;2023-05-18T12:42:10;22.95;31.57
68493;HTU21D;55483;51.106;5.984;2023-05-18T12:44:36;23.26;31.10
68493;HTU21D;55483;51.106;5.984;2023-05-18T12:47:02;22.80;32.06
68493;HTU21D;55483;51.106;5.984;2023-05-18T12:49:28;22.88;31.39
68493;HTU21D;55483;51.106;5.984;2023-05-18T12:51:54;23.01;31.24
68493;HTU21D;55483;51.106;5.984;2023-05-18T12:54:29;23.20;30.83
68493;HTU21D;55483;51.106;5.984;2023-05-18T12:56:55;23.20;31.45
68493;HTU21D;55483;51.106;5.984;2023-05-18T12:59:25;23.13;30.99
68493;HTU21D;55483;51.106;5.984;2023-05-18T13:01:54;22.75;30.83
68493;HTU21D;55483;51.106;5.984;2023-05-18T13:04:21;22.64;31.52
68493;HTU21D;55483;51.106;5.984;2023-05-18T13:06:47;22.84;32.06
68493;HTU21D;55483;51.106;5.984;2023-05-18T13:09:14;23.09;31.38
68493;HTU21D;55483;51.106;5.984;2023-05-18T13:11:45;22.86;31.25
68493;HTU21D;55483;51.106;5.984;2023-05-18T13:14:12;22.17;32.51
68493;HTU21D;55483;51.106;5.984;2023-05-18T13:16:43;22.22;33.38
68493;HTU21D;55483;51.106;5.984;2023-05-18T13:19:10;22.53;33.09
68493;HTU21D;55483;51.106;5.984;2023-05-18T13:21:36;22.95;32.29
68493;HTU21D;55483;51.106;5.984;2023-05-18T13:24:05;23.09;32.48
68493;HTU21D;55483;51.106;5.984;2023-05-18T13:26:31;23.24;32.09
68493;HTU21D;55483;51.106;5.984;2023-05-18T13:28:57;23.18;31.67
68493;HTU21D;55483;51.106;5.984;2023-05-18T13:31:23;23.31;31.90
68493;HTU21D;55483;51.106;5.984;2023-05-18T13:33:49;23.27;31.66
68493;HTU21D;55483;51.106;5.984;2023-05-18T13:36:16;23.38;31.35
68493;HTU21D;55483;51.106;5.984;2023-05-18T13:38:42;23.65;30.54
68493;HTU21D;55483;51.106;5.984;2023-05-18T13:41:12;23.45;31.22
68493;HTU21D;55483;51.106;5.984;2023-05-18T13:43:40;22.90;31.93
68493;HTU21D;55483;51.106;5.984;2023-05-18T13:46:06;22.78;32.25
68493;HTU21D;55483;51.106;5.984;2023-05-18T13:48:31;22.82;32.15
68493;HTU21D;55483;51.106;5.984;2023-05-18T13:50:57;22.92;31.65
68493;HTU21D;55483;51.106;5.984;2023-05-18T13:53:23;22.99;32.24
68493;HTU21D;55483;51.106;5.984;2023-05-18T13:55:49;23.09;31.57
68493;HTU21D;55483;51.106;5.984;2023-05-18T13:58:14;23.01;31.70
68493;HTU21D;55483;51.106;5.984;2023-05-18T14:00:40;22.82;31.71
68493;HTU21D;55483;51.106;5.984;2023-05-18T14:03:06;22.93;32.01
68493;HTU21D;55483;51.106;5.984;2023-05-18T14:05:31;23.06;32.35
68493;HTU21D;55483;51.106;5.984;2023-05-18T14:07:57;23.16;32.34
68493;HTU21D;55483;51.106;5.984;2023-05-18T14:10:23;23.25;31.62
68493;HTU21D;55483;51.106;5.984;2023-05-18T14:12:48;23.07;32.03
68493;HTU21D;55483;51.106;5.984;2023-05-18T14:15:14;23.02;31.89
68493;HTU21D;55483;51.106;5.984;2023-05-18T14:17:41;22.75;32.53
68493;HTU21D;55483;51.106;5.984;2023-05-18T14:20:07;22.79;33.05
68493;HTU21D;55483;51.106;5.984;2023-05-18T14:22:33;22.85;32.99
68493;HTU21D;55483;51.106;5.984;2023-05-18T14:24:59;22.92;32.76
68493;HTU21D;55483;51.106;5.984;2023-05-18T14:27:25;22.87;32.83
68493;HTU21D;55483;51.106;5.984;2023-05-18T14:29:51;22.82;33.01
68493;HTU21D;55483;51.106;5.984;2023-05-18T14:32:18;22.79;33.23
68493;HTU21D;55483;51.106;5.984;2023-05-18T14:34:47;22.84;33.23
68493;HTU21D;55483;51.106;5.984;2023-05-18T14:37:16;22.63;33.22
68493;HTU21D;55483;51.106;5.984;2023-05-18T14:39:41;22.20;33.41
68493;HTU21D;55483;51.106;5.984;2023-05-18T14:42:07;22.19;34.12
68493;HTU21D;55483;51.106;5.984;2023-05-18T14:44:32;22.48;34.92
68493;HTU21D;55483;51.106;5.984;2023-05-18T14:46:58;22.68;33.79
68493;HTU21D;55483;51.106;5.984;2023-05-18T14:49:23;22.56;33.34
68493;HTU21D;55483;51.106;5.984;2023-05-18T14:51:49;22.26;33.21
68493;HTU21D;55483;51.106;5.984;2023-05-18T14:54:14;22.14;34.04
68493;HTU21D;55483;51.106;5.984;2023-05-18T14:56:40;22.02;33.62
68493;HTU21D;55483;51.106;5.984;2023-05-18T14:59:06;22.05;34.30
68493;HTU21D;55483;51.106;5.984;2023-05-18T15:01:31;21.91;33.59
68493;HTU21D;55483;51.106;5.984;2023-05-18T15:03:57;21.66;34.67
68493;HTU21D;55483;51.106;5.984;2023-05-18T15:06:26;21.58;34.63
68493;HTU21D;55483;51.106;5.984;2023-05-18T15:08:51;21.82;34.42
68493;HTU21D;55483;51.106;5.984;2023-05-18T15:11:17;21.89;34.29
68493;HTU21D;55483;51.106;5.984;2023-05-18T15:13:44;21.93;34.23
68493;HTU21D;55483;51.106;5.984;2023-05-18T15:16:10;21.93;33.74
68493;HTU21D;55483;51.106;5.984;2023-05-18T15:18:36;21.92;34.05
68493;HTU21D;55483;51.106;5.984;2023-05-18T15:21:01;22.02;34.02
68493;HTU21D;55483;51.106;5.984;2023-05-18T15:23:27;22.19;33.99
68493;HTU21D;55483;51.106;5.984;2023-05-18T15:25:52;22.37;33.92
68493;HTU21D;55483;51.106;5.984;2023-05-18T15:28:18;22.17;33.57
68493;HTU21D;55483;51.106;5.984;2023-05-18T15:30:43;21.99;34.21
68493;HTU21D;55483;51.106;5.984;2023-05-18T15:33:09;21.47;34.93
68493;HTU21D;55483;51.106;5.984;2023-05-18T15:35:34;21.35;35.25
68493;HTU21D;55483;51.106;5.984;2023-05-18T15:38:01;21.16;34.98
68493;HTU21D;55483;51.106;5.984;2023-05-18T15:40:27;21.07;35.60